Time;durP1;ratioP1;P1;durP2;ratioP2;P2;SDS_P1;SDS_P2;PMS_P1;PMS_P2;Temp;Humidity;BMP_temperature;BMP_pressure;BME280_temperature;BME280_humidity;BME280_pressure;Samples;Min_cycle;Max_cycle;Signal;HPM_P1;HPM_P2
2021/09/19 00:01:23;;;;;;;;;;;19.60;69.60;;;;;;5022309;28;19917;-59
2021/09/19 00:03:48;;;;;;;;;;;19.60;69.00;;;;;;5021715;28;20394;-61
2021/09/19 00:06:15;;;;;;;;;;;19.60;69.90;;;;;;5021281;28;19921;-59
2021/09/19 00:08:40;;;;;;;;;;;19.60;69.70;;;;;;5021258;28;20283;-60
2021/09/19 00:11:05;;;;;;;;;;;19.60;70.10;;;;;;5022054;28;19913;-59
2021/09/19 00:13:31;;;;;;;;;;;19.60;69.90;;;;;;5019157;28;19941;-60
2021/09/19 00:15:56;;;;;;;;;;;19.70;69.80;;;;;;5020539;28;20417;-61
2021/09/19 00:18:22;;;;;;;;;;;19.70;68.40;;;;;;5020010;28;19922;-59
2021/09/19 00:20:47;;;;;;;;;;;19.60;67.70;;;;;;5022366;28;19921;-56
2021/09/19 00:23:13;;;;;;;;;;;19.60;69.70;;;;;;5020128;28;19924;-57
2021/09/19 00:25:38;;;;;;;;;;;19.60;68.90;;;;;;5021847;28;20455;-59
2021/09/19 00:28:04;;;;;;;;;;;19.60;69.60;;;;;;5020303;28;19913;-60
2021/09/19 00:30:29;;;;;;;;;;;19.60;69.90;;;;;;5022440;28;19913;-57
2021/09/19 00:32:55;;;;;;;;;;;19.60;67.70;;;;;;5022226;28;20294;-57
2021/09/19 00:35:20;;;;;;;;;;;19.60;69.80;;;;;;5020103;28;19967;-59
2021/09/19 00:37:45;;;;;;;;;;;19.60;70.00;;;;;;5021851;28;20508;-60
2021/09/19 00:40:11;;;;;;;;;;;19.60;69.60;;;;;;5019429;28;19917;-59
2021/09/19 00:42:37;;;;;;;;;;;19.60;69.00;;;;;;5021991;28;20036;-59
2021/09/19 00:45:04;;;;;;;;;;;19.60;68.40;;;;;;5019289;28;20464;-61
2021/09/19 00:47:29;;;;;;;;;;;19.60;69.80;;;;;;5022498;28;19940;-55
2021/09/19 00:49:54;;;;;;;;;;;19.60;69.70;;;;;;5020418;28;19925;-61
2021/09/19 00:52:20;;;;;;;;;;;19.60;69.20;;;;;;5021196;28;20009;-60
2021/09/19 00:54:45;;;;;;;;;;;19.60;68.60;;;;;;5019597;28;19971;-60
2021/09/19 00:57:11;;;;;;;;;;;19.60;68.20;;;;;;5019458;28;19995;-60
2021/09/19 00:59:38;;;;;;;;;;;19.50;69.80;;;;;;5018295;28;19919;-60
2021/09/19 01:02:03;;;;;;;;;;;19.50;67.00;;;;;;5021277;28;19953;-60
2021/09/19 01:04:30;;;;;;;;;;;19.50;69.40;;;;;;5014477;28;19955;-59
2021/09/19 01:06:56;;;;;;;;;;;19.60;70.10;;;;;;5019073;28;20389;-59
2021/09/19 01:09:21;;;;;;;;;;;19.50;69.80;;;;;;5017248;28;19960;-60
2021/09/19 01:11:47;;;;;;;;;;;19.50;69.80;;;;;;5021961;28;19914;-58
2021/09/19 01:14:14;;;;;;;;;;;19.60;68.60;;;;;;5020224;28;19917;-59
2021/09/19 01:16:41;;;;;;;;;;;19.60;68.50;;;;;;5022037;28;19921;-60
2021/09/19 01:19:08;;;;;;;;;;;19.50;68.80;;;;;;5017658;28;19963;-60
2021/09/19 01:21:33;;;;;;;;;;;19.50;69.00;;;;;;5019737;28;19924;-59
2021/09/19 01:24:03;;;;;;;;;;;19.60;67.80;;;;;;5019011;28;19979;-59
2021/09/19 01:26:29;;;;;;;;;;;19.50;68.90;;;;;;5047679;28;21266;-59
2021/09/19 01:28:54;;;;;;;;;;;19.50;69.40;;;;;;5046391;28;19917;-60
2021/09/19 01:31:20;;;;;;;;;;;19.60;68.20;;;;;;5050774;28;20384;-60
2021/09/19 01:33:45;;;;;;;;;;;19.60;68.80;;;;;;5058562;28;19917;-60
2021/09/19 01:36:11;;;;;;;;;;;19.60;69.50;;;;;;5056901;28;20730;-58
2021/09/19 01:38:36;;;;;;;;;;;19.60;68.30;;;;;;5054715;28;19980;-60
2021/09/19 01:41:02;;;;;;;;;;;19.60;68.90;;;;;;5053280;28;19916;-66
2021/09/19 01:43:27;;;;;;;;;;;19.60;68.10;;;;;;5049705;28;19924;-60
2021/09/19 01:45:52;;;;;;;;;;;19.60;68.60;;;;;;5052617;28;20023;-60
2021/09/19 01:48:18;;;;;;;;;;;19.60;68.30;;;;;;5044416;28;20252;-57
2021/09/19 01:50:43;;;;;;;;;;;19.60;68.20;;;;;;5056157;28;19916;-62
2021/09/19 01:53:09;;;;;;;;;;;19.70;68.20;;;;;;5052347;28;19996;-59
2021/09/19 01:55:34;;;;;;;;;;;19.60;69.00;;;;;;5060239;28;19923;-59
2021/09/19 01:58:00;;;;;;;;;;;19.60;68.40;;;;;;5049092;28;19921;-59
2021/09/19 02:00:28;;;;;;;;;;;19.60;68.40;;;;;;5049374;28;19920;-61
2021/09/19 02:02:54;;;;;;;;;;;19.60;69.50;;;;;;5052941;28;19956;-58
2021/09/19 02:05:19;;;;;;;;;;;19.60;69.60;;;;;;5045860;28;19955;-58
2021/09/19 02:07:45;;;;;;;;;;;19.60;69.40;;;;;;5050038;28;19920;-59
2021/09/19 02:10:12;;;;;;;;;;;19.60;69.40;;;;;;5050188;28;19939;-59
2021/09/19 02:12:37;;;;;;;;;;;19.60;67.20;;;;;;5056691;28;20402;-58
2021/09/19 02:15:04;;;;;;;;;;;19.60;69.00;;;;;;5054277;28;19957;-59
2021/09/19 02:17:29;;;;;;;;;;;19.60;67.80;;;;;;5064449;28;19922;-60
2021/09/19 02:19:55;;;;;;;;;;;19.60;68.90;;;;;;5058630;28;19912;-60
2021/09/19 02:22:20;;;;;;;;;;;19.60;68.50;;;;;;5048264;28;20394;-59
2021/09/19 02:24:46;;;;;;;;;;;19.60;68.90;;;;;;5054749;28;19912;-61
2021/09/19 02:27:11;;;;;;;;;;;19.70;68.70;;;;;;5060524;28;19912;-59
2021/09/19 02:29:36;;;;;;;;;;;19.60;69.10;;;;;;5053447;28;20651;-60
2021/09/19 02:32:02;;;;;;;;;;;19.60;69.40;;;;;;5055130;28;19963;-59
2021/09/19 02:34:28;;;;;;;;;;;19.60;69.40;;;;;;5056246;28;19995;-56
2021/09/19 02:36:53;;;;;;;;;;;19.60;68.80;;;;;;5052843;28;19917;-59
2021/09/19 02:39:19;;;;;;;;;;;19.60;69.30;;;;;;5044576;28;20103;-60
2021/09/19 02:41:44;;;;;;;;;;;19.60;69.30;;;;;;5057317;28;19913;-59
2021/09/19 02:44:09;;;;;;;;;;;19.60;68.50;;;;;;5043115;28;19913;-58
2021/09/19 02:46:35;;;;;;;;;;;19.60;69.10;;;;;;5053951;28;19917;-59
2021/09/19 02:49:00;;;;;;;;;;;19.60;69.00;;;;;;5051074;28;19913;-56
2021/09/19 02:51:26;;;;;;;;;;;19.60;68.90;;;;;;5046907;28;19927;-58
2021/09/19 02:53:51;;;;;;;;;;;19.60;68.20;;;;;;5048371;28;19921;-56
2021/09/19 02:56:17;;;;;;;;;;;19.60;68.30;;;;;;5051581;28;19920;-59
2021/09/19 02:58:42;;;;;;;;;;;19.50;68.80;;;;;;5046289;28;19944;-60
2021/09/19 03:01:07;;;;;;;;;;;19.60;68.40;;;;;;5060939;28;20313;-60
2021/09/19 03:03:33;;;;;;;;;;;19.60;69.30;;;;;;5054755;28;19917;-58
2021/09/19 03:05:59;;;;;;;;;;;19.60;69.10;;;;;;5049150;28;20058;-58
2021/09/19 03:08:24;;;;;;;;;;;19.60;69.40;;;;;;5038627;28;20236;-59
2021/09/19 03:10:50;;;;;;;;;;;19.60;68.60;;;;;;5040289;28;19979;-59
2021/09/19 03:13:16;;;;;;;;;;;19.60;69.30;;;;;;5051542;28;19913;-57
2021/09/19 03:15:41;;;;;;;;;;;19.60;69.30;;;;;;5054870;28;19928;-56
2021/09/19 03:18:08;;;;;;;;;;;19.60;68.90;;;;;;5046938;28;19923;-58
2021/09/19 03:20:33;;;;;;;;;;;19.60;69.20;;;;;;5052974;28;20340;-56
2021/09/19 03:22:59;;;;;;;;;;;19.60;69.30;;;;;;5055118;28;19931;-62
2021/09/19 03:25:24;;;;;;;;;;;19.60;69.30;;;;;;5051548;28;19975;-61
2021/09/19 03:27:49;;;;;;;;;;;19.50;69.10;;;;;;5063038;28;19917;-58
2021/09/19 03:30:15;;;;;;;;;;;19.60;69.20;;;;;;5053342;28;19951;-59
2021/09/19 03:32:41;;;;;;;;;;;19.60;69.20;;;;;;5057852;28;19943;-56
2021/09/19 03:35:07;;;;;;;;;;;19.60;69.20;;;;;;5040678;28;19939;-57
2021/09/19 03:37:32;;;;;;;;;;;19.60;69.20;;;;;;5055176;28;19923;-60
2021/09/19 03:39:57;;;;;;;;;;;19.60;68.90;;;;;;5053910;28;20022;-57
2021/09/19 03:42:23;;;;;;;;;;;19.60;69.20;;;;;;5063100;28;20274;-57
2021/09/19 03:44:49;;;;;;;;;;;19.60;69.00;;;;;;5043745;28;19943;-59
2021/09/19 03:47:15;;;;;;;;;;;19.50;69.10;;;;;;5052350;28;19913;-59
2021/09/19 03:49:41;;;;;;;;;;;19.60;69.20;;;;;;5050442;28;19924;-59
2021/09/19 03:52:06;;;;;;;;;;;19.60;69.10;;;;;;5060735;28;19912;-60
2021/09/19 03:54:32;;;;;;;;;;;19.60;69.10;;;;;;5050971;28;19927;-66
2021/09/19 03:56:57;;;;;;;;;;;19.60;69.10;;;;;;5063413;28;19912;-59
2021/09/19 03:59:23;;;;;;;;;;;19.60;69.10;;;;;;5040005;28;19962;-61
2021/09/19 04:01:49;;;;;;;;;;;19.60;69.00;;;;;;5059168;28;20410;-60
2021/09/19 04:04:14;;;;;;;;;;;19.50;69.00;;;;;;5050371;28;19912;-59
2021/09/19 04:06:40;;;;;;;;;;;19.60;69.10;;;;;;5057247;28;20687;-60
2021/09/19 04:09:05;;;;;;;;;;;19.50;69.00;;;;;;5037538;28;19912;-56
2021/09/19 04:11:31;;;;;;;;;;;19.50;69.00;;;;;;5060831;28;19917;-57
2021/09/19 04:13:56;;;;;;;;;;;19.60;69.10;;;;;;5051133;28;20688;-59
2021/09/19 04:16:21;;;;;;;;;;;19.50;68.90;;;;;;5058303;28;19979;-58
2021/09/19 04:18:47;;;;;;;;;;;19.60;68.90;;;;;;5041690;28;19968;-59
2021/09/19 04:21:12;;;;;;;;;;;19.60;68.50;;;;;;5058344;28;19917;-58
2021/09/19 04:23:38;;;;;;;;;;;19.60;68.80;;;;;;5043186;28;19916;-57
2021/09/19 04:26:03;;;;;;;;;;;19.50;68.80;;;;;;5066344;28;19982;-59
2021/09/19 04:28:29;;;;;;;;;;;19.60;68.60;;;;;;5040917;28;19924;-59
2021/09/19 04:30:54;;;;;;;;;;;19.60;68.90;;;;;;5056409;28;19913;-60
2021/09/19 04:33:20;;;;;;;;;;;19.60;68.80;;;;;;5047335;28;19919;-59
2021/09/19 04:35:45;;;;;;;;;;;19.60;68.80;;;;;;5048570;28;19959;-59
2021/09/19 04:38:11;;;;;;;;;;;19.50;68.80;;;;;;5040926;28;19917;-60
2021/09/19 04:40:36;;;;;;;;;;;19.60;68.60;;;;;;5065227;28;20107;-60
2021/09/19 04:43:01;;;;;;;;;;;19.60;68.70;;;;;;5054641;28;20045;-60
2021/09/19 04:45:27;;;;;;;;;;;19.60;68.70;;;;;;5044979;28;21383;-60
2021/09/19 04:47:53;;;;;;;;;;;19.60;68.10;;;;;;5048249;28;20534;-58
2021/09/19 04:50:18;;;;;;;;;;;19.60;68.40;;;;;;5041749;28;20325;-55
2021/09/19 04:52:43;;;;;;;;;;;19.60;67.80;;;;;;5049795;28;19919;-60
2021/09/19 04:55:09;;;;;;;;;;;19.60;65.20;;;;;;5046938;28;20382;-57
2021/09/19 04:57:34;;;;;;;;;;;19.40;67.60;;;;;;5049301;28;19912;-56
2021/09/19 05:00:00;;;;;;;;;;;19.20;63.40;;;;;;5050640;28;19920;-58
2021/09/19 05:02:25;;;;;;;;;;;19.10;67.10;;;;;;5056725;28;19921;-58
2021/09/19 05:04:51;;;;;;;;;;;19.00;64.10;;;;;;5054502;28;20436;-59
2021/09/19 05:07:16;;;;;;;;;;;19.10;67.70;;;;;;5055296;28;19913;-60
2021/09/19 05:09:42;;;;;;;;;;;19.30;66.90;;;;;;5056294;28;19954;-57
2021/09/19 05:12:07;;;;;;;;;;;19.20;65.10;;;;;;5056727;28;19913;-58
2021/09/19 05:14:33;;;;;;;;;;;19.20;66.70;;;;;;5047964;28;20012;-60
2021/09/19 05:16:58;;;;;;;;;;;19.30;68.00;;;;;;5064890;28;19921;-59
2021/09/19 05:19:24;;;;;;;;;;;19.40;66.40;;;;;;5060049;28;19917;-60
2021/09/19 05:21:49;;;;;;;;;;;19.40;63.80;;;;;;5060083;28;19913;-61
2021/09/19 05:24:15;;;;;;;;;;;19.30;67.00;;;;;;5058388;28;20426;-59
2021/09/19 05:26:40;;;;;;;;;;;19.30;65.20;;;;;;5048945;28;19916;-58
2021/09/19 05:29:05;;;;;;;;;;;19.30;64.80;;;;;;5051596;28;19912;-59
2021/09/19 05:31:31;;;;;;;;;;;19.30;67.90;;;;;;5052106;28;19916;-60
2021/09/19 05:33:57;;;;;;;;;;;19.40;66.40;;;;;;5055562;28;19916;-60
2021/09/19 05:36:23;;;;;;;;;;;19.20;65.80;;;;;;5053943;28;19927;-61
2021/09/19 05:38:48;;;;;;;;;;;19.30;67.60;;;;;;5051487;28;20297;-60
2021/09/19 05:41:14;;;;;;;;;;;19.40;67.30;;;;;;5055737;28;19919;-59
2021/09/19 05:43:40;;;;;;;;;;;19.30;67.80;;;;;;5051824;28;19931;-61
2021/09/19 05:46:05;;;;;;;;;;;19.40;67.90;;;;;;5052977;28;19913;-60
2021/09/19 05:48:31;;;;;;;;;;;19.40;68.00;;;;;;5048867;28;19920;-60
2021/09/19 05:50:56;;;;;;;;;;;19.40;68.00;;;;;;5052691;28;20000;-60
2021/09/19 05:53:22;;;;;;;;;;;19.40;67.80;;;;;;5056085;28;19913;-59
2021/09/19 05:55:48;;;;;;;;;;;19.40;67.90;;;;;;5053995;28;19912;-60
2021/09/19 05:58:13;;;;;;;;;;;19.40;67.90;;;;;;5053793;28;20361;-60
2021/09/19 06:00:39;;;;;;;;;;;19.40;67.90;;;;;;5064850;28;19916;-59
2021/09/19 06:03:05;;;;;;;;;;;19.40;67.20;;;;;;5053706;28;19920;-58
2021/09/19 06:05:30;;;;;;;;;;;19.40;67.70;;;;;;5055441;28;19912;-60
2021/09/19 06:07:56;;;;;;;;;;;19.40;64.80;;;;;;5047683;28;19913;-60
2021/09/19 06:10:21;;;;;;;;;;;19.40;66.70;;;;;;5046236;28;19917;-59
2021/09/19 06:12:47;;;;;;;;;;;19.40;67.80;;;;;;5055416;28;19917;-59
2021/09/19 06:15:12;;;;;;;;;;;19.40;67.20;;;;;;5062241;28;20325;-61
2021/09/19 06:17:38;;;;;;;;;;;19.40;67.70;;;;;;5046516;28;20164;-59
2021/09/19 06:20:04;;;;;;;;;;;19.40;68.00;;;;;;5051470;28;19912;-64
2021/09/19 06:22:29;;;;;;;;;;;19.40;68.10;;;;;;5052257;28;20080;-60
2021/09/19 06:24:54;;;;;;;;;;;19.40;67.20;;;;;;5055187;28;20079;-60
2021/09/19 06:27:20;;;;;;;;;;;19.40;68.60;;;;;;5054380;28;19924;-60
2021/09/19 06:29:45;;;;;;;;;;;19.40;68.80;;;;;;5056829;28;19919;-55
2021/09/19 06:32:11;;;;;;;;;;;19.30;62.70;;;;;;5052482;28;19912;-58
2021/09/19 06:34:37;;;;;;;;;;;19.20;66.50;;;;;;5047217;28;20429;-58
2021/09/19 06:37:02;;;;;;;;;;;19.30;66.70;;;;;;5057866;28;19947;-57
2021/09/19 06:39:28;;;;;;;;;;;19.30;66.80;;;;;;5060524;28;19996;-57
2021/09/19 06:41:53;;;;;;;;;;;19.40;67.00;;;;;;5046636;28;19967;-58
2021/09/19 06:44:19;;;;;;;;;;;19.30;66.30;;;;;;5052560;28;19913;-58
2021/09/19 06:46:44;;;;;;;;;;;19.30;66.00;;;;;;5049877;28;20324;-58
2021/09/19 06:49:10;;;;;;;;;;;19.30;64.80;;;;;;5046446;28;19921;-59
2021/09/19 06:51:35;;;;;;;;;;;19.10;65.40;;;;;;5059435;28;20175;-58
2021/09/19 06:54:00;;;;;;;;;;;19.20;65.80;;;;;;5052147;28;19963;-57
2021/09/19 06:56:26;;;;;;;;;;;19.20;64.30;;;;;;5055731;28;20441;-59
2021/09/19 06:58:51;;;;;;;;;;;19.20;66.20;;;;;;5045641;28;19917;-60
2021/09/19 07:01:17;;;;;;;;;;;19.20;65.20;;;;;;5055189;28;19925;-58
2021/09/19 07:03:42;;;;;;;;;;;19.20;66.20;;;;;;5058344;28;19927;-58
2021/09/19 07:06:08;;;;;;;;;;;19.30;66.60;;;;;;5054653;28;19912;-60
2021/09/19 07:08:33;;;;;;;;;;;19.30;67.60;;;;;;5052365;28;20038;-61
2021/09/19 07:10:59;;;;;;;;;;;19.30;67.50;;;;;;5048741;28;19923;-58
2021/09/19 07:13:24;;;;;;;;;;;19.30;63.00;;;;;;5055889;28;20348;-59
2021/09/19 07:15:53;;;;;;;;;;;19.20;67.60;;;;;;5050384;28;20023;-60
2021/09/19 07:18:19;;;;;;;;;;;19.20;68.00;;;;;;5044472;28;20007;-58
2021/09/19 07:20:45;;;;;;;;;;;19.30;68.20;;;;;;5044758;28;19936;-59
2021/09/19 07:23:10;;;;;;;;;;;19.20;66.70;;;;;;5043992;28;19920;-60
2021/09/19 07:25:35;;;;;;;;;;;19.20;68.60;;;;;;5051796;28;19919;-59
2021/09/19 07:28:03;;;;;;;;;;;19.30;68.80;;;;;;5041470;28;19924;-58
2021/09/19 07:30:29;;;;;;;;;;;19.30;68.70;;;;;;5046442;28;19996;-58
2021/09/19 07:32:55;;;;;;;;;;;19.30;68.50;;;;;;5043856;28;20180;-58
2021/09/19 07:35:20;;;;;;;;;;;19.30;68.80;;;;;;5056169;28;19921;-60
2021/09/19 07:37:47;;;;;;;;;;;19.30;68.20;;;;;;5043681;28;19913;-60
2021/09/19 07:40:13;;;;;;;;;;;19.30;64.00;;;;;;5035054;28;19982;-59
2021/09/19 07:42:39;;;;;;;;;;;19.30;62.10;;;;;;5059131;28;19920;-59
2021/09/19 07:45:06;;;;;;;;;;;19.20;65.50;;;;;;5047804;28;19923;-59
2021/09/19 07:47:31;;;;;;;;;;;19.20;65.10;;;;;;5038290;28;19913;-57
2021/09/19 07:49:58;;;;;;;;;;;19.30;61.80;;;;;;5043253;28;19916;-58
2021/09/19 07:52:25;;;;;;;;;;;19.30;63.50;;;;;;5058453;28;19913;-57
2021/09/19 07:54:54;;;;;;;;;;;19.30;62.80;;;;;;5060031;28;19991;-59
2021/09/19 07:57:19;;;;;;;;;;;19.10;61.00;;;;;;5044258;28;19913;-58
2021/09/19 07:59:47;;;;;;;;;;;19.20;62.00;;;;;;5056146;28;19919;-58
2021/09/19 08:02:13;;;;;;;;;;;19.20;62.00;;;;;;5040603;28;19931;-59
2021/09/19 08:04:38;;;;;;;;;;;19.20;61.50;;;;;;5054682;28;19932;-57
2021/09/19 08:07:03;;;;;;;;;;;19.20;60.30;;;;;;5044521;28;19913;-57
2021/09/19 08:09:30;;;;;;;;;;;19.10;59.20;;;;;;5052211;28;19935;-58
2021/09/19 08:11:56;;;;;;;;;;;19.10;61.00;;;;;;5052094;28;19912;-57
2021/09/19 08:14:21;;;;;;;;;;;19.20;60.60;;;;;;5033503;28;19920;-59
2021/09/19 08:16:46;;;;;;;;;;;19.20;58.50;;;;;;5052794;28;19955;-57
2021/09/19 08:19:12;;;;;;;;;;;19.20;60.10;;;;;;5044151;28;20154;-56
2021/09/19 08:21:38;;;;;;;;;;;19.20;59.40;;;;;;5048760;28;20364;-58
2021/09/19 08:24:04;;;;;;;;;;;19.20;59.10;;;;;;5052456;28;19916;-57
2021/09/19 08:26:29;;;;;;;;;;;19.20;58.60;;;;;;5050000;28;20614;-57
2021/09/19 08:28:55;;;;;;;;;;;19.20;57.20;;;;;;5054803;28;19961;-56
2021/09/19 08:31:20;;;;;;;;;;;19.00;56.90;;;;;;5052345;28;20290;-57
2021/09/19 08:33:46;;;;;;;;;;;19.10;58.30;;;;;;5048812;28;19920;-57
2021/09/19 08:36:12;;;;;;;;;;;19.10;58.70;;;;;;5049030;28;19917;-58
2021/09/19 08:38:37;;;;;;;;;;;19.10;58.80;;;;;;5052622;28;19954;-60
2021/09/19 08:41:02;;;;;;;;;;;19.20;58.70;;;;;;5050846;28;19913;-58
2021/09/19 08:43:28;;;;;;;;;;;19.20;57.20;;;;;;5050658;28;20686;-58
2021/09/19 08:45:53;;;;;;;;;;;19.20;58.50;;;;;;5053203;28;19913;-60
2021/09/19 08:48:19;;;;;;;;;;;19.00;56.20;;;;;;5064473;28;19913;-59
2021/09/19 08:50:45;;;;;;;;;;;19.10;58.20;;;;;;5054633;28;19971;-59
2021/09/19 08:53:11;;;;;;;;;;;19.10;58.50;;;;;;5058475;28;19913;-57
2021/09/19 08:55:36;;;;;;;;;;;19.10;56.60;;;;;;5054190;28;19913;-57
2021/09/19 08:58:03;;;;;;;;;;;19.00;57.60;;;;;;5061330;28;20726;-60
2021/09/19 09:00:28;;;;;;;;;;;18.80;56.90;;;;;;5048673;28;19945;-59
2021/09/19 09:02:54;;;;;;;;;;;18.90;57.70;;;;;;5052665;28;20436;-60
2021/09/19 09:05:20;;;;;;;;;;;19.00;58.40;;;;;;5051323;28;19935;-59
2021/09/19 09:07:46;;;;;;;;;;;19.10;58.70;;;;;;5048356;28;20298;-60
2021/09/19 09:10:12;;;;;;;;;;;19.00;57.70;;;;;;5053969;28;19917;-58
2021/09/19 09:12:38;;;;;;;;;;;19.00;57.60;;;;;;5053774;28;20375;-60
2021/09/19 09:15:05;;;;;;;;;;;19.00;57.90;;;;;;5053589;28;19978;-59
2021/09/19 09:17:32;;;;;;;;;;;18.90;57.10;;;;;;5028995;28;20455;-56
2021/09/19 09:19:58;;;;;;;;;;;18.90;57.90;;;;;;5048908;28;19917;-56
2021/09/19 09:22:24;;;;;;;;;;;18.90;56.80;;;;;;5055531;28;19920;-57
2021/09/19 09:25:06;;;;;;;;;;;19.00;59.00;;;;;;5061023;28;19912;-58
2021/09/19 09:27:36;;;;;;;;;;;18.90;58.60;;;;;;5046698;28;20370;-56
2021/09/19 09:30:11;;;;;;;;;;;19.00;58.90;;;;;;5048700;28;20409;-59
2021/09/19 09:33:06;;;;;;;;;;;19.00;59.40;;;;;;5061893;28;20002;-60
2021/09/19 09:35:36;;;;;;;;;;;18.80;58.30;;;;;;5042219;28;19913;-59
2021/09/19 09:38:20;;;;;;;;;;;18.90;59.00;;;;;;5044512;28;19912;-61
2021/09/19 09:40:45;;;;;;;;;;;18.90;60.00;;;;;;5021238;28;19927;-62
2021/09/19 09:43:11;;;;;;;;;;;18.90;58.80;;;;;;5057017;28;19920;-55
2021/09/19 09:45:38;;;;;;;;;;;19.00;60.90;;;;;;5054998;28;19912;-59
2021/09/19 09:48:04;;;;;;;;;;;19.10;60.70;;;;;;5043061;28;19966;-59
2021/09/19 09:50:29;;;;;;;;;;;19.00;61.50;;;;;;5052829;28;20011;-60
2021/09/19 09:53:08;;;;;;;;;;;19.00;57.50;;;;;;5055165;28;20031;-58
2021/09/19 09:55:33;;;;;;;;;;;19.00;60.50;;;;;;5029723;28;19913;-59
2021/09/19 09:57:59;;;;;;;;;;;19.00;60.90;;;;;;5047952;28;19920;-58
2021/09/19 10:00:24;;;;;;;;;;;19.00;60.90;;;;;;5054064;28;20430;-57
2021/09/19 10:02:50;;;;;;;;;;;18.90;56.40;;;;;;5051991;28;20409;-59
2021/09/19 10:05:16;;;;;;;;;;;18.80;60.40;;;;;;5052354;28;19917;-60
2021/09/19 10:07:42;;;;;;;;;;;18.90;60.90;;;;;;5057014;28;20281;-59
2021/09/19 10:10:08;;;;;;;;;;;18.90;59.40;;;;;;5055961;28;19913;-62
2021/09/19 10:12:35;;;;;;;;;;;18.70;57.00;;;;;;5053730;28;20417;-59
2021/09/19 10:15:00;;;;;;;;;;;18.60;58.70;;;;;;5045421;28;19919;-60
2021/09/19 10:17:27;;;;;;;;;;;18.70;60.70;;;;;;5045487;28;19917;-60
2021/09/19 10:19:52;;;;;;;;;;;18.80;59.50;;;;;;5045550;28;19920;-60
2021/09/19 10:22:23;;;;;;;;;;;18.80;59.90;;;;;;5043576;28;20021;-59
2021/09/19 10:24:48;;;;;;;;;;;18.80;63.20;;;;;;5052426;28;20416;-60
2021/09/19 10:27:15;;;;;;;;;;;18.90;64.60;;;;;;5053264;28;20304;-59
2021/09/19 10:29:42;;;;;;;;;;;18.90;65.40;;;;;;5045056;28;19917;-60
2021/09/19 10:32:07;;;;;;;;;;;18.80;64.70;;;;;;5062994;28;19919;-63
2021/09/19 10:34:34;;;;;;;;;;;18.80;71.00;;;;;;5055800;28;19916;-59
2021/09/19 10:37:00;;;;;;;;;;;18.80;68.80;;;;;;5059912;28;19913;-59
2021/09/19 10:39:27;;;;;;;;;;;18.80;71.20;;;;;;5051816;28;19913;-59
2021/09/19 10:42:14;;;;;;;;;;;18.90;73.10;;;;;;5050828;28;19966;-59
2021/09/19 10:44:46;;;;;;;;;;;19.00;70.80;;;;;;5048077;28;20354;-60
2021/09/19 10:47:11;;;;;;;;;;;19.00;72.50;;;;;;5059310;28;20364;-59
2021/09/19 10:49:37;;;;;;;;;;;19.00;69.60;;;;;;5056136;28;19917;-59
2021/09/19 10:52:03;;;;;;;;;;;19.10;69.30;;;;;;5050086;28;20381;-58
2021/09/19 10:54:44;;;;;;;;;;;18.80;66.10;;;;;;5055977;28;19916;-65
2021/09/19 10:57:13;;;;;;;;;;;18.80;65.10;;;;;;5064957;28;20470;-56
2021/09/19 10:59:57;;;;;;;;;;;18.90;66.10;;;;;;5047884;28;20027;-58
2021/09/19 11:02:26;;;;;;;;;;;18.80;65.10;;;;;;5050446;28;20423;-57
2021/09/19 11:04:57;;;;;;;;;;;18.90;63.80;;;;;;5053665;28;19917;-60
2021/09/19 11:07:22;;;;;;;;;;;18.60;61.70;;;;;;5043039;28;19917;-58
2021/09/19 11:09:48;;;;;;;;;;;18.50;63.90;;;;;;5054932;28;19939;-59
2021/09/19 11:12:14;;;;;;;;;;;18.50;64.00;;;;;;5056341;28;19973;-59
2021/09/19 11:17:20;;;;;;;;;;;18.70;64.50;;;;;;5088755;28;20004;-65
2021/09/19 11:19:52;;;;;;;;;;;18.70;63.40;;;;;;5099884;28;19995;-66
2021/09/19 11:22:21;;;;;;;;;;;18.80;67.60;;;;;;5071334;28;19920;-65
2021/09/19 11:24:47;;;;;;;;;;;18.90;68.30;;;;;;5083995;28;19912;-66
2021/09/19 11:27:12;;;;;;;;;;;18.90;68.40;;;;;;5077273;28;19926;-64
2021/09/19 11:29:38;;;;;;;;;;;18.90;68.80;;;;;;5064064;28;19912;-65
2021/09/19 11:32:03;;;;;;;;;;;19.00;67.00;;;;;;5061392;28;20361;-66
2021/09/19 11:34:29;;;;;;;;;;;19.00;66.40;;;;;;5081326;28;20463;-65
2021/09/19 11:36:56;;;;;;;;;;;18.80;60.30;;;;;;5080443;28;19916;-66
2021/09/19 11:39:21;;;;;;;;;;;18.90;64.10;;;;;;5078811;28;20048;-65
2021/09/19 11:41:47;;;;;;;;;;;18.90;63.60;;;;;;5100825;28;19916;-65
2021/09/19 11:44:13;;;;;;;;;;;18.90;63.10;;;;;;5100334;28;19916;-65
2021/09/19 11:46:56;;;;;;;;;;;18.90;63.10;;;;;;5101413;28;19912;-66
2021/09/19 11:49:22;;;;;;;;;;;19.00;58.90;;;;;;5057712;28;19916;-67
2021/09/19 11:51:47;;;;;;;;;;;18.80;58.30;;;;;;5085193;28;19912;-67
2021/09/19 11:54:13;;;;;;;;;;;18.80;59.60;;;;;;5097441;28;19912;-67
2021/09/19 11:56:40;;;;;;;;;;;18.70;58.90;;;;;;5069360;28;19916;-67
2021/09/19 11:59:05;;;;;;;;;;;18.80;61.30;;;;;;5060788;28;19913;-67
2021/09/19 12:01:31;;;;;;;;;;;18.80;60.70;;;;;;5087398;28;19918;-67
2021/09/19 12:04:04;;;;;;;;;;;18.80;60.90;;;;;;5097803;28;19916;-67
2021/09/19 12:06:29;;;;;;;;;;;18.80;55.60;;;;;;5098927;28;20365;-67
2021/09/19 12:08:55;;;;;;;;;;;18.70;58.80;;;;;;5093773;28;20003;-67
2021/09/19 12:11:20;;;;;;;;;;;18.70;57.50;;;;;;5062927;28;20593;-67
2021/09/19 12:13:46;;;;;;;;;;;18.60;58.90;;;;;;5065609;28;19916;-67
2021/09/19 12:16:12;;;;;;;;;;;18.70;59.50;;;;;;5079845;28;19923;-67
2021/09/19 12:18:42;;;;;;;;;;;18.70;57.10;;;;;;5097795;28;20379;-67
2021/09/19 12:21:07;;;;;;;;;;;18.50;57.40;;;;;;5089233;28;20393;-67
2021/09/19 12:23:39;;;;;;;;;;;18.50;58.70;;;;;;5082700;28;19969;-67
2021/09/19 12:26:04;;;;;;;;;;;18.30;56.00;;;;;;5087790;28;19919;-67
2021/09/19 12:28:30;;;;;;;;;;;18.20;57.10;;;;;;5076711;28;19912;-67
2021/09/19 12:30:56;;;;;;;;;;;18.20;57.70;;;;;;5078660;28;19921;-67
2021/09/19 12:33:21;;;;;;;;;;;18.00;56.40;;;;;;5084069;28;19912;-67
2021/09/19 12:35:47;;;;;;;;;;;17.90;55.20;;;;;;5089763;28;19912;-67
2021/09/19 12:38:14;;;;;;;;;;;17.80;56.00;;;;;;5078183;28;20356;-67
2021/09/19 12:40:39;;;;;;;;;;;17.80;54.60;;;;;;5057756;28;20288;-67
2021/09/19 12:43:05;;;;;;;;;;;17.80;57.60;;;;;;5078057;28;19916;-67
2021/09/19 12:45:30;;;;;;;;;;;18.00;58.70;;;;;;5079078;28;20642;-67
2021/09/19 12:47:56;;;;;;;;;;;18.30;58.20;;;;;;5078168;28;19919;-67
2021/09/19 12:50:21;;;;;;;;;;;18.20;56.60;;;;;;5060959;28;19957;-67
2021/09/19 12:52:46;;;;;;;;;;;18.20;57.20;;;;;;5079272;28;20304;-67
2021/09/19 12:55:16;;;;;;;;;;;18.00;56.30;;;;;;5098860;28;19912;-67
2021/09/19 12:57:41;;;;;;;;;;;17.90;57.80;;;;;;5098845;28;19920;-67
2021/09/19 13:00:07;;;;;;;;;;;17.90;55.50;;;;;;5098960;28;19927;-66
2021/09/19 13:02:32;;;;;;;;;;;17.90;57.80;;;;;;5093126;28;20307;-67
2021/09/19 13:04:58;;;;;;;;;;;18.10;59.50;;;;;;5078056;28;20392;-67
2021/09/19 13:07:24;;;;;;;;;;;18.10;57.30;;;;;;5077050;28;19916;-67
2021/09/19 13:09:49;;;;;;;;;;;18.20;58.20;;;;;;5086879;28;19912;-67
2021/09/19 13:12:14;;;;;;;;;;;18.30;60.10;;;;;;5079887;28;19920;-67
2021/09/19 13:14:40;;;;;;;;;;;18.30;59.30;;;;;;5098439;28;19919;-67
2021/09/19 13:17:05;;;;;;;;;;;18.30;57.70;;;;;;5098099;28;20245;-68
2021/09/19 13:19:31;;;;;;;;;;;18.10;55.40;;;;;;5097570;28;19951;-67
2021/09/19 13:21:56;;;;;;;;;;;18.20;57.80;;;;;;5099897;28;20396;-67
2021/09/19 13:24:22;;;;;;;;;;;18.00;57.40;;;;;;5083619;28;19916;-68
2021/09/19 13:26:47;;;;;;;;;;;18.10;57.80;;;;;;5094449;28;19912;-67
2021/09/19 13:29:16;;;;;;;;;;;18.20;60.00;;;;;;5080037;28;19917;-67
2021/09/19 13:31:41;;;;;;;;;;;18.30;60.20;;;;;;5081564;28;19916;-67
2021/09/19 13:34:06;;;;;;;;;;;18.30;56.20;;;;;;5081056;28;19916;-68
2021/09/19 13:36:32;;;;;;;;;;;18.20;57.20;;;;;;5097967;28;19916;-66
2021/09/19 13:38:57;;;;;;;;;;;18.20;58.10;;;;;;5090781;28;19912;-66
2021/09/19 13:41:23;;;;;;;;;;;18.20;58.20;;;;;;5079750;28;20424;-68
2021/09/19 13:43:50;;;;;;;;;;;18.30;58.40;;;;;;5100410;28;19930;-67
2021/09/19 13:46:15;;;;;;;;;;;18.10;55.00;;;;;;5082690;27;19916;-67
2021/09/19 13:48:41;;;;;;;;;;;18.10;57.50;;;;;;5082071;28;20683;-66
2021/09/19 13:51:06;;;;;;;;;;;18.20;58.20;;;;;;5087728;28;19912;-67
2021/09/19 13:53:32;;;;;;;;;;;18.30;60.30;;;;;;5099054;28;20576;-67
2021/09/19 13:55:58;;;;;;;;;;;18.30;60.00;;;;;;5100932;28;19911;-67
2021/09/19 13:58:23;;;;;;;;;;;18.30;58.70;;;;;;5099067;28;20298;-67
2021/09/19 14:00:49;;;;;;;;;;;18.20;57.40;;;;;;5094220;28;19926;-67
2021/09/19 14:03:14;;;;;;;;;;;18.30;59.50;;;;;;5099357;28;19919;-67
2021/09/19 14:05:41;;;;;;;;;;;18.30;58.20;;;;;;5099876;28;20017;-67
2021/09/19 14:08:07;;;;;;;;;;;18.20;55.20;;;;;;5088863;28;20013;-67
2021/09/19 14:10:32;;;;;;;;;;;18.30;58.20;;;;;;5078965;28;19916;-67
2021/09/19 14:12:58;;;;;;;;;;;18.30;58.70;;;;;;5083815;28;19918;-67